This is the latest recevied weather packets stored in our database for station/object K0WOI. If no packets are shown the sender has not sent any weather packets the latest 1 day(s).
| Time | Temp. | Humidity | Pressure | Rain* | Wind** | Luminosity | Snow |
|---|---|---|---|---|---|---|---|
| 1778087702 | 10.56° C | 39% | 1018 hPa | 0 mm | - | 262 W/m² | - |
| 1778087095 | 10.56° C | 41% | 1017.8 hPa | 0 mm | - | 298 W/m² | - |
| 1778085577 | 10° C | 41% | 1018 hPa | 0 mm | - | 206 W/m² | - |
| 1778085272 | 10° C | 40% | 1018 hPa | 0 mm | - | 176 W/m² | - |
| 1778084967 | 10.56° C | 39% | 1018 hPa | 0 mm | - | 178 W/m² | - |
| 1778080824 | 10° C | 43% | 1017.9 hPa | 0 mm | - | 754 W/m² | - |
| 1778080218 | 9.44° C | 44% | 1018 hPa | 0 mm | - | 659 W/m² | - |
| 1778079308 | 8.89° C | 46% | 1017.9 hPa | 0 mm | - | 603 W/m² | - |
| 1778076587 | 7.22° C | 52% | 1017.7 hPa | 0 mm | - | 150 W/m² | - |
| 1778076283 | 7.22° C | 55% | 1017.5 hPa | 0 mm | - | 144 W/m² | - |
| 1778075677 | 6.67° C | 58% | 1017.7 hPa | 0 mm | - | 47 W/m² | - |
| 1778075373 | 6.67° C | 55% | 1017.7 hPa | 0 mm | - | 120 W/m² | - |
| 1778074160 | 6.11° C | 60% | 1017.4 hPa | 0 mm | - | 41 W/m² | - |
| 1778073857 | 5.56° C | 64% | 1017.5 hPa | 0 mm | - | 46 W/m² | - |
| 1778073251 | 5° C | 66% | 1017.3 hPa | 0 mm | - | 42 W/m² | - |
| 1778072041 | 3.89° C | 69% | 1017.3 hPa | 0 mm | - | 32 W/m² | - |
| 1778071435 | 3.33° C | 72% | 1017.1 hPa | 0 mm | - | 29 W/m² | - |
| 1778070831 | 2.78° C | 74% | 1017 hPa | 0 mm | - | 26 W/m² | - |
| 1778070225 | 2.78° C | 75% | 1016.8 hPa | 0 mm | - | 23 W/m² | - |
| 1778069620 | 2.22° C | 83% | 1016.7 hPa | 0 mm | - | 21 W/m² | - |
| 1778069317 | 2.22° C | 85% | 1016.6 hPa | 0 mm | - | 29 W/m² | - |
| 1778068410 | 2.22° C | 81% | 1016.3 hPa | 0 mm | - | 20 W/m² | - |
| 1778068108 | 2.22° C | 80% | 1016.2 hPa | 0 mm | - | 16 W/m² | - |
| 1778067504 | 2.78° C | 79% | 1016.4 hPa | 0 mm | - | 12 W/m² | - |
| 1778067201 | 2.78° C | 75% | 1016.1 hPa | 0 mm | - | 10 W/m² | - |
* Rain latest hour (hover to see other rain measurements)
** Current wind speed in m/s (hover to see current wind gust speed)